Time;durP1;ratioP1;P1;durP2;ratioP2;P2;SDS_P1;SDS_P2;PMS_P1;PMS_P2;Temp;Humidity;BMP_temperature;BMP_pressure;BME280_temperature;BME280_humidity;BME280_pressure;Samples;Min_cycle;Max_cycle;Signal;HPM_P1;HPM_P2
2021/01/07 00:02:11;;;;;;;5.90;4.80;;;;;;;;;;5037420;28;20181;-59
2021/01/07 00:04:37;;;;;;;7.00;5.20;;;;;;;;;;5052729;28;20917;-61
2021/01/07 00:07:03;;;;;;;5.43;4.47;;;;;;;;;;5072586;28;20419;-59
2021/01/07 00:09:29;;;;;;;5.40;4.27;;;;;;;;;;5055919;28;20176;-59
2021/01/07 00:11:56;;;;;;;7.53;5.00;;;;;;;;;;5061589;28;20477;-60
2021/01/07 00:14:32;;;;;;;5.70;4.23;;;;;;;;;;5060842;28;20415;-59
2021/01/07 00:16:58;;;;;;;6.73;4.80;;;;;;;;;;5056516;28;20738;-59
2021/01/07 00:19:24;;;;;;;5.70;4.80;;;;;;;;;;5055064;28;20770;-59
2021/01/07 00:21:50;;;;;;;7.70;5.03;;;;;;;;;;5050988;28;20418;-59
2021/01/07 00:24:16;;;;;;;5.87;4.80;;;;;;;;;;5072904;28;20179;-60
2021/01/07 00:26:42;;;;;;;6.70;4.83;;;;;;;;;;5071058;28;20200;-59
2021/01/07 00:29:07;;;;;;;5.23;4.50;;;;;;;;;;5052591;28;20181;-59
2021/01/07 00:31:33;;;;;;;5.50;4.83;;;;;;;;;;5052859;28;20745;-59
2021/01/07 00:34:00;;;;;;;5.23;4.23;;;;;;;;;;5053224;28;20208;-61
2021/01/07 00:36:26;;;;;;;6.63;5.13;;;;;;;;;;5034930;28;20459;-59
2021/01/07 00:38:52;;;;;;;7.13;5.13;;;;;;;;;;5052904;28;20408;-59
2021/01/07 00:41:18;;;;;;;6.33;4.80;;;;;;;;;;5052192;28;20818;-59
2021/01/07 00:43:53;;;;;;;7.40;4.83;;;;;;;;;;5034264;28;20173;-59
2021/01/07 00:46:20;;;;;;;7.37;4.80;;;;;;;;;;5052708;28;20427;-59
2021/01/07 00:48:47;;;;;;;7.30;5.13;;;;;;;;;;5070373;28;20423;-59
2021/01/07 00:51:13;;;;;;;6.87;4.70;;;;;;;;;;5056233;28;20944;-59
2021/01/07 00:53:39;;;;;;;6.03;4.83;;;;;;;;;;5052574;28;20490;-59
2021/01/07 00:56:05;;;;;;;8.73;5.07;;;;;;;;;;5052005;28;20247;-66
2021/01/07 00:58:31;;;;;;;6.60;4.97;;;;;;;;;;5052186;28;20491;-60
2021/01/07 01:00:57;;;;;;;9.40;4.43;;;;;;;;;;5052142;28;20427;-60
2021/01/07 01:03:23;;;;;;;7.00;5.47;;;;;;;;;;5073187;28;20259;-59
2021/01/07 01:06:05;;;;;;;7.00;5.27;;;;;;;;;;5064221;28;20185;-58
2021/01/07 01:08:31;;;;;;;6.03;4.67;;;;;;;;;;5066722;28;20434;-60
2021/01/07 01:10:59;;;;;;;6.47;5.00;;;;;;;;;;5061953;28;20980;-59
2021/01/07 01:13:25;;;;;;;5.83;4.37;;;;;;;;;;5069462;28;20204;-59
2021/01/07 01:16:01;;;;;;;5.50;4.87;;;;;;;;;;5058284;28;20439;-61
2021/01/07 01:18:27;;;;;;;6.47;4.20;;;;;;;;;;5056372;28;20933;-60
2021/01/07 01:20:53;;;;;;;6.60;4.40;;;;;;;;;;5052705;28;20436;-59
2021/01/07 01:23:19;;;;;;;6.37;4.47;;;;;;;;;;5051426;28;20263;-59
2021/01/07 01:25:45;;;;;;;7.47;4.60;;;;;;;;;;5035143;28;20196;-59
2021/01/07 01:28:11;;;;;;;6.80;4.67;;;;;;;;;;5065774;28;20354;-59
2021/01/07 01:30:37;;;;;;;8.20;5.23;;;;;;;;;;5071630;28;20996;-59
2021/01/07 01:33:03;;;;;;;5.57;4.40;;;;;;;;;;5052762;28;20277;-59
2021/01/07 01:35:29;;;;;;;7.50;5.57;;;;;;;;;;5071949;28;20523;-59
2021/01/07 01:37:55;;;;;;;7.17;4.73;;;;;;;;;;5071867;28;20179;-59
2021/01/07 01:40:21;;;;;;;7.93;5.43;;;;;;;;;;5068340;28;20243;-59
2021/01/07 01:42:47;;;;;;;9.63;4.87;;;;;;;;;;5059972;28;20192;-59
2021/01/07 01:45:13;;;;;;;7.27;4.70;;;;;;;;;;5064856;28;20180;-59
2021/01/07 01:47:39;;;;;;;5.53;4.37;;;;;;;;;;5052869;28;20418;-59
2021/01/07 01:50:05;;;;;;;6.70;4.97;;;;;;;;;;5060999;28;20468;-60
2021/01/07 01:52:31;;;;;;;6.70;4.73;;;;;;;;;;5068083;28;20471;-58
2021/01/07 01:54:57;;;;;;;7.43;5.53;;;;;;;;;;5065595;28;20890;-59
2021/01/07 01:57:23;;;;;;;7.13;5.30;;;;;;;;;;5070689;28;20457;-58
2021/01/07 01:59:49;;;;;;;8.17;5.00;;;;;;;;;;5061810;28;20962;-59
2021/01/07 02:02:17;;;;;;;6.60;5.30;;;;;;;;;;5058249;28;20475;-59
2021/01/07 02:04:44;;;;;;;7.10;5.40;;;;;;;;;;5051178;28;20461;-59
2021/01/07 02:07:12;;;;;;;6.57;4.80;;;;;;;;;;5050991;28;20430;-59
2021/01/07 02:09:38;;;;;;;6.90;5.17;;;;;;;;;;5046038;28;20494;-58
2021/01/07 02:12:04;;;;;;;7.43;5.23;;;;;;;;;;5052926;28;20491;-59
2021/01/07 02:14:30;;;;;;;7.80;5.43;;;;;;;;;;5056269;28;20920;-59
2021/01/07 02:16:56;;;;;;;11.43;5.80;;;;;;;;;;5050936;28;20419;-59
2021/01/07 02:19:23;;;;;;;6.13;5.03;;;;;;;;;;5050888;28;20491;-59
2021/01/07 02:21:49;;;;;;;7.43;5.27;;;;;;;;;;5050604;28;20442;-59
2021/01/07 02:24:18;;;;;;;6.07;4.73;;;;;;;;;;5050958;28;20775;-59
2021/01/07 02:26:44;;;;;;;6.63;4.90;;;;;;;;;;5050031;28;20424;-58
2021/01/07 02:29:11;;;;;;;8.67;5.37;;;;;;;;;;5050156;28;20412;-59
2021/01/07 02:31:37;;;;;;;6.70;5.23;;;;;;;;;;5050543;28;20443;-61
2021/01/07 02:34:03;;;;;;;5.90;4.90;;;;;;;;;;5051172;28;20463;-59
2021/01/07 02:36:29;;;;;;;6.97;4.67;;;;;;;;;;5050334;28;20906;-59
2021/01/07 02:38:55;;;;;;;6.77;5.13;;;;;;;;;;5047941;28;20454;-58
2021/01/07 02:41:21;;;;;;;9.77;5.60;;;;;;;;;;5058076;28;20227;-59
2021/01/07 02:43:47;;;;;;;7.17;5.37;;;;;;;;;;5029582;28;20427;-61
2021/01/07 02:46:13;;;;;;;8.53;5.37;;;;;;;;;;5069785;28;20425;-59
2021/01/07 02:48:39;;;;;;;7.03;4.40;;;;;;;;;;5070356;28;20436;-59
2021/01/07 02:51:05;;;;;;;6.80;4.97;;;;;;;;;;5051152;28;20426;-59
2021/01/07 02:53:31;;;;;;;6.63;5.30;;;;;;;;;;5063752;28;20193;-59
2021/01/07 02:55:57;;;;;;;7.93;5.80;;;;;;;;;;5036122;28;20434;-61
2021/01/07 02:58:23;;;;;;;8.23;5.73;;;;;;;;;;5069572;28;20402;-58
2021/01/07 03:00:49;;;;;;;8.47;6.73;;;;;;;;;;5059892;28;20169;-58
2021/01/07 03:03:15;;;;;;;8.30;5.57;;;;;;;;;;5049486;28;20315;-59
2021/01/07 03:05:41;;;;;;;8.23;5.57;;;;;;;;;;5061770;28;20189;-59
2021/01/07 03:08:07;;;;;;;8.73;6.67;;;;;;;;;;5063395;28;20455;-59
2021/01/07 03:10:33;;;;;;;8.70;6.87;;;;;;;;;;5068447;28;20523;-59
2021/01/07 03:12:59;;;;;;;9.63;7.10;;;;;;;;;;5069915;28;20199;-58
2021/01/07 03:15:25;;;;;;;10.77;7.93;;;;;;;;;;5073633;28;20430;-59
2021/01/07 03:17:51;;;;;;;8.93;7.37;;;;;;;;;;5074250;28;20634;-59
2021/01/07 03:20:18;;;;;;;10.80;7.63;;;;;;;;;;5060692;28;20424;-61
2021/01/07 03:22:44;;;;;;;10.77;7.47;;;;;;;;;;5054001;28;20181;-59
2021/01/07 03:25:10;;;;;;;9.47;7.43;;;;;;;;;;5066906;28;20480;-59
2021/01/07 03:27:37;;;;;;;9.27;6.80;;;;;;;;;;5073876;28;20418;-60
2021/01/07 03:30:04;;;;;;;11.10;7.80;;;;;;;;;;5054242;28;20527;-59
2021/01/07 03:32:30;;;;;;;10.13;7.90;;;;;;;;;;5053991;28;20457;-59
2021/01/07 03:34:56;;;;;;;11.97;8.07;;;;;;;;;;5054037;28;20403;-59
2021/01/07 03:37:22;;;;;;;10.10;7.67;;;;;;;;;;5036061;28;20498;-59
2021/01/07 03:39:48;;;;;;;12.60;8.67;;;;;;;;;;5035786;28;20181;-59
2021/01/07 03:42:14;;;;;;;9.83;8.10;;;;;;;;;;5055640;28;20490;-59
2021/01/07 03:44:40;;;;;;;12.10;8.90;;;;;;;;;;5053102;28;20455;-59
2021/01/07 03:47:06;;;;;;;14.53;8.40;;;;;;;;;;5053886;28;20458;-59
2021/01/07 03:49:33;;;;;;;11.57;7.30;;;;;;;;;;5053374;28;20586;-59
2021/01/07 03:51:59;;;;;;;10.60;8.07;;;;;;;;;;5053667;28;20878;-59
2021/01/07 03:54:25;;;;;;;11.07;8.40;;;;;;;;;;5053549;28;20423;-59
2021/01/07 03:56:51;;;;;;;10.53;8.23;;;;;;;;;;5053256;28;20414;-59
2021/01/07 03:59:17;;;;;;;12.33;8.63;;;;;;;;;;5054100;28;20431;-59
2021/01/07 04:01:43;;;;;;;9.30;8.03;;;;;;;;;;5053660;28;20431;-61
2021/01/07 04:04:09;;;;;;;12.37;7.90;;;;;;;;;;5053367;28;21000;-59
2021/01/07 04:06:36;;;;;;;11.30;8.57;;;;;;;;;;5053550;28;20411;-59
2021/01/07 04:09:02;;;;;;;11.97;8.17;;;;;;;;;;5061592;28;20168;-58
2021/01/07 04:11:28;;;;;;;12.17;9.10;;;;;;;;;;5072972;28;20756;-59
2021/01/07 04:13:54;;;;;;;11.67;8.97;;;;;;;;;;5061581;28;20483;-59
2021/01/07 04:16:20;;;;;;;12.40;8.70;;;;;;;;;;5053077;28;20936;-58
2021/01/07 04:18:46;;;;;;;11.90;8.53;;;;;;;;;;5052394;28;20498;-58
2021/01/07 04:21:12;;;;;;;11.13;8.73;;;;;;;;;;5052997;28;20499;-59
2021/01/07 04:23:38;;;;;;;10.60;8.60;;;;;;;;;;5052713;28;20829;-60
2021/01/07 04:26:04;;;;;;;10.47;8.17;;;;;;;;;;5052593;28;20432;-59
2021/01/07 04:28:30;;;;;;;13.53;9.00;;;;;;;;;;5054011;28;20283;-58
2021/01/07 04:30:56;;;;;;;12.40;9.07;;;;;;;;;;5054434;28;20785;-59
2021/01/07 04:33:22;;;;;;;12.17;8.70;;;;;;;;;;5068326;28;20290;-59
2021/01/07 04:35:48;;;;;;;11.63;9.23;;;;;;;;;;5072749;28;20490;-59
2021/01/07 04:38:14;;;;;;;11.97;8.77;;;;;;;;;;5072722;28;20603;-59
2021/01/07 04:40:40;;;;;;;10.43;8.30;;;;;;;;;;5054162;28;20536;-59
2021/01/07 04:43:06;;;;;;;10.43;8.97;;;;;;;;;;5056229;28;20185;-59
2021/01/07 04:45:32;;;;;;;10.93;8.33;;;;;;;;;;5034166;28;20439;-59
2021/01/07 04:48:01;;;;;;;13.23;9.07;;;;;;;;;;5052454;28;20412;-61
2021/01/07 04:50:27;;;;;;;10.27;7.60;;;;;;;;;;5052748;28;20431;-59
2021/01/07 04:52:53;;;;;;;11.17;8.20;;;;;;;;;;5053131;28;20505;-58
2021/01/07 04:55:19;;;;;;;11.93;8.33;;;;;;;;;;5051895;28;20477;-61
2021/01/07 04:57:45;;;;;;;11.23;8.97;;;;;;;;;;5034021;28;20466;-59
2021/01/07 05:00:12;;;;;;;11.63;9.63;;;;;;;;;;5051592;28;20415;-59
2021/01/07 05:02:39;;;;;;;11.57;9.27;;;;;;;;;;5066304;28;20540;-59
2021/01/07 05:05:06;;;;;;;11.03;8.63;;;;;;;;;;5054343;28;20407;-59
2021/01/07 05:07:32;;;;;;;12.37;8.60;;;;;;;;;;5056054;28;20747;-59
2021/01/07 05:10:03;;;;;;;12.40;9.40;;;;;;;;;;5033967;28;20948;-59
2021/01/07 05:12:29;;;;;;;12.40;8.97;;;;;;;;;;5051468;28;20466;-59
2021/01/07 05:14:55;;;;;;;11.97;9.03;;;;;;;;;;5051745;28;20471;-59
2021/01/07 05:17:22;;;;;;;11.60;9.33;;;;;;;;;;5051820;28;20427;-59
2021/01/07 05:19:48;;;;;;;11.60;9.00;;;;;;;;;;5066461;28;20429;-59
2021/01/07 05:22:14;;;;;;;15.27;9.87;;;;;;;;;;5051919;28;20478;-61
2021/01/07 05:24:40;;;;;;;11.43;9.47;;;;;;;;;;5068894;28;20410;-59
2021/01/07 05:27:10;;;;;;;12.63;9.00;;;;;;;;;;5054136;28;20554;-59
2021/01/07 05:29:40;;;;;;;13.60;9.30;;;;;;;;;;5066134;28;20429;-59
2021/01/07 05:32:07;;;;;;;11.10;9.03;;;;;;;;;;5063316;28;20476;-58
2021/01/07 05:34:44;;;;;;;13.20;9.80;;;;;;;;;;5051381;28;20891;-59
2021/01/07 05:37:15;;;;;;;12.17;9.53;;;;;;;;;;5050932;28;20398;-59
2021/01/07 05:39:41;;;;;;;13.30;9.37;;;;;;;;;;5034218;28;20427;-59
2021/01/07 05:42:07;;;;;;;12.80;9.80;;;;;;;;;;5062545;28;20438;-59
2021/01/07 05:44:33;;;;;;;12.23;9.50;;;;;;;;;;5070840;28;20259;-59
2021/01/07 05:46:59;;;;;;;12.80;9.77;;;;;;;;;;5070749;28;20569;-61
2021/01/07 05:49:38;;;;;;;12.57;9.33;;;;;;;;;;5071659;28;20482;-59
2021/01/07 05:52:06;;;;;;;14.70;10.47;;;;;;;;;;5061126;28;20415;-59
2021/01/07 05:54:33;;;;;;;13.87;10.30;;;;;;;;;;5050771;28;20480;-60
2021/01/07 05:57:03;;;;;;;15.67;10.83;;;;;;;;;;5037222;28;20984;-61
2021/01/07 05:59:31;;;;;;;16.13;10.03;;;;;;;;;;5056181;28;20419;-59
2021/01/07 06:01:59;;;;;;;14.97;10.10;;;;;;;;;;5069115;28;20417;-61
2021/01/07 06:04:26;;;;;;;15.27;10.90;;;;;;;;;;5070337;28;20403;-60
2021/01/07 06:06:52;;;;;;;15.90;10.97;;;;;;;;;;5052365;28;20420;-60
2021/01/07 06:09:18;;;;;;;17.73;11.47;;;;;;;;;;5050729;28;20450;-61
2021/01/07 06:11:44;;;;;;;14.50;10.70;;;;;;;;;;5050842;28;20423;-59
2021/01/07 06:14:10;;;;;;;16.67;11.70;;;;;;;;;;5032504;28;20517;-59
2021/01/07 06:16:36;;;;;;;18.70;12.50;;;;;;;;;;5050397;28;20754;-59
2021/01/07 06:19:41;;;;;;;16.03;10.20;;;;;;;;;;5050796;28;20173;-58
2021/01/07 06:22:15;;;;;;;16.63;11.90;;;;;;;;;;4934455;28;20185;-59
2021/01/07 06:24:41;;;;;;;13.47;10.27;;;;;;;;;;4963573;28;20431;-59
2021/01/07 06:27:27;;;;;;;18.73;11.73;;;;;;;;;;5003115;28;20439;-59
2021/01/07 06:29:54;;;;;;;17.10;10.63;;;;;;;;;;5049501;28;20515;-59
2021/01/07 06:32:21;;;;;;;13.97;10.43;;;;;;;;;;5032631;28;20411;-59
2021/01/07 06:34:49;;;;;;;14.37;10.43;;;;;;;;;;5049906;28;20446;-59
2021/01/07 06:37:29;;;;;;;16.13;10.70;;;;;;;;;;5032055;28;20407;-59
2021/01/07 06:39:57;;;;;;;15.23;10.00;;;;;;;;;;5050329;28;20399;-61
2021/01/07 06:42:23;;;;;;;15.43;10.67;;;;;;;;;;5060503;28;20425;-59
2021/01/07 06:44:49;;;;;;;13.83;10.13;;;;;;;;;;5063938;28;20734;-59
2021/01/07 06:47:20;;;;;;;14.30;9.27;;;;;;;;;;5049968;28;20471;-59
2021/01/07 06:49:46;;;;;;;14.40;9.17;;;;;;;;;;5067521;28;20429;-59
2021/01/07 06:52:12;;;;;;;13.40;9.43;;;;;;;;;;5068852;28;20419;-59
2021/01/07 06:54:43;;;;;;;15.87;9.80;;;;;;;;;;5069591;28;20796;-59
2021/01/07 06:57:12;;;;;;;13.80;9.97;;;;;;;;;;5052605;28;20431;-59
2021/01/07 06:59:59;;;;;;;13.90;9.57;;;;;;;;;;5048878;28;20423;-59
2021/01/07 07:02:25;;;;;;;12.07;9.13;;;;;;;;;;5050991;28;20498;-59
2021/01/07 07:05:02;;;;;;;15.00;9.17;;;;;;;;;;5038114;28;20574;-59
2021/01/07 07:07:38;;;;;;;12.40;8.80;;;;;;;;;;5048422;28;20435;-60
2021/01/07 07:10:13;;;;;;;11.33;8.77;;;;;;;;;;5030235;28;20423;-59
2021/01/07 07:12:40;;;;;;;12.80;8.67;;;;;;;;;;5036102;28;20544;-59
2021/01/07 07:15:10;;;;;;;12.07;8.30;;;;;;;;;;5069601;28;20419;-59
2021/01/07 07:17:37;;;;;;;11.80;8.60;;;;;;;;;;5060423;28;20423;-59
2021/01/07 07:20:07;;;;;;;11.17;7.93;;;;;;;;;;5052804;28;20420;-59
2021/01/07 07:22:42;;;;;;;11.97;8.67;;;;;;;;;;5038128;28;20438;-59
2021/01/07 07:25:09;;;;;;;10.53;7.97;;;;;;;;;;5069754;28;20414;-60
2021/01/07 07:27:49;;;;;;;10.60;8.23;;;;;;;;;;5067564;28;20407;-59
2021/01/07 07:30:26;;;;;;;10.33;7.40;;;;;;;;;;5051201;28;20509;-60
2021/01/07 07:32:52;;;;;;;9.83;7.57;;;;;;;;;;5059513;28;20561;-59
2021/01/07 07:35:42;;;;;;;10.07;6.77;;;;;;;;;;5048974;28;20411;-60
2021/01/07 07:38:11;;;;;;;11.37;8.20;;;;;;;;;;5048699;28;20412;-59
2021/01/07 07:40:38;;;;;;;9.33;6.90;;;;;;;;;;5032614;28;20415;-59
2021/01/07 07:43:05;;;;;;;12.73;7.57;;;;;;;;;;5067823;28;20446;-59
2021/01/07 07:45:35;;;;;;;10.07;7.13;;;;;;;;;;5051305;28;20918;-59
2021/01/07 07:48:01;;;;;;;10.57;7.83;;;;;;;;;;5068067;28;20426;-59
2021/01/07 07:50:29;;;;;;;9.47;7.23;;;;;;;;;;5061329;28;20476;-59
2021/01/07 07:53:12;;;;;;;9.77;7.20;;;;;;;;;;5067189;28;20561;-59
2021/01/07 07:55:38;;;;;;;9.03;6.90;;;;;;;;;;5055532;28;20419;-59
2021/01/07 07:58:11;;;;;;;9.57;6.60;;;;;;;;;;5035205;28;20899;-59
2021/01/07 08:00:40;;;;;;;11.23;7.20;;;;;;;;;;5053612;28;20518;-59
2021/01/07 08:03:06;;;;;;;9.80;7.40;;;;;;;;;;5032842;28;20876;-59
2021/01/07 08:05:33;;;;;;;10.20;6.20;;;;;;;;;;5051149;28;20450;-59
2021/01/07 08:07:59;;;;;;;9.70;7.70;;;;;;;;;;5050771;28;20424;-60
2021/01/07 08:10:26;;;;;;;8.30;6.43;;;;;;;;;;5051404;28;20408;-59
2021/01/07 08:12:54;;;;;;;9.47;6.67;;;;;;;;;;5054295;28;20462;-58
2021/01/07 08:15:29;;;;;;;8.60;6.67;;;;;;;;;;5050450;28;20454;-59
2021/01/07 08:17:55;;;;;;;10.20;6.67;;;;;;;;;;5055373;28;20809;-59
2021/01/07 08:20:27;;;;;;;8.97;6.50;;;;;;;;;;5060349;28;20426;-59
2021/01/07 08:22:54;;;;;;;9.63;6.40;;;;;;;;;;5052825;28;20424;-59
2021/01/07 08:25:28;;;;;;;8.07;6.07;;;;;;;;;;5033685;28;20412;-59
2021/01/07 08:27:56;;;;;;;9.33;6.50;;;;;;;;;;5044150;28;20419;-59
2021/01/07 08:30:23;;;;;;;10.67;6.93;;;;;;;;;;5059095;28;20896;-60
2021/01/07 08:32:50;;;;;;;8.40;6.00;;;;;;;;;;5043467;28;20455;-61
2021/01/07 08:35:17;;;;;;;8.83;6.27;;;;;;;;;;5043903;28;20433;-59
2021/01/07 08:37:43;;;;;;;8.30;6.17;;;;;;;;;;5041178;28;20422;-59
2021/01/07 08:40:10;;;;;;;8.30;6.50;;;;;;;;;;5043166;28;20776;-60
2021/01/07 08:42:39;;;;;;;7.53;6.00;;;;;;;;;;5062152;28;20415;-59
2021/01/07 08:45:06;;;;;;;10.30;7.30;;;;;;;;;;5062581;28;20911;-59
2021/01/07 08:47:32;;;;;;;7.93;6.70;;;;;;;;;;5042248;28;20948;-59
2021/01/07 08:50:11;;;;;;;7.37;6.23;;;;;;;;;;5062392;28;20451;-59
2021/01/07 08:52:50;;;;;;;7.53;6.73;;;;;;;;;;5062658;28;20873;-59
2021/01/07 08:55:16;;;;;;;9.13;7.10;;;;;;;;;;5059619;28;20515;-59
2021/01/07 08:57:42;;;;;;;9.57;7.10;;;;;;;;;;5041197;28;20518;-59
2021/01/07 09:00:15;;;;;;;11.30;7.30;;;;;;;;;;5059141;28;20415;-59
2021/01/07 09:02:41;;;;;;;10.90;7.50;;;;;;;;;;5039245;28;20482;-59
2021/01/07 09:05:07;;;;;;;10.73;7.63;;;;;;;;;;5059004;28;20436;-59
2021/01/07 09:07:34;;;;;;;10.17;7.73;;;;;;;;;;5060106;28;20398;-59
2021/01/07 09:10:01;;;;;;;9.40;7.50;;;;;;;;;;5060113;28;20862;-59
2021/01/07 09:12:31;;;;;;;8.83;7.50;;;;;;;;;;5044750;28;20436;-61
2021/01/07 09:15:10;;;;;;;9.33;7.57;;;;;;;;;;5060119;28;20475;-59
2021/01/07 09:17:39;;;;;;;10.30;8.43;;;;;;;;;;5047248;28;20430;-61
2021/01/07 09:20:06;;;;;;;11.23;8.20;;;;;;;;;;5046969;28;20511;-59
2021/01/07 09:22:32;;;;;;;10.57;7.87;;;;;;;;;;5033282;28;20431;-60
2021/01/07 09:24:59;;;;;;;10.97;7.70;;;;;;;;;;5057960;28;20443;-59
2021/01/07 09:27:25;;;;;;;12.00;8.37;;;;;;;;;;5038264;28;20426;-59
2021/01/07 09:29:52;;;;;;;10.90;8.60;;;;;;;;;;5046820;28;20989;-59
2021/01/07 09:32:18;;;;;;;11.83;9.00;;;;;;;;;;5057862;28;20423;-60
2021/01/07 09:34:45;;;;;;;10.63;8.33;;;;;;;;;;5040261;28;20505;-59
2021/01/07 09:37:18;;;;;;;13.33;9.53;;;;;;;;;;5057423;28;20429;-59
2021/01/07 09:39:44;;;;;;;12.13;8.50;;;;;;;;;;5039428;28;20504;-60
2021/01/07 09:42:10;;;;;;;12.03;8.87;;;;;;;;;;5057070;28;20416;-59
2021/01/07 09:44:37;;;;;;;10.77;8.27;;;;;;;;;;5039181;28;20442;-60
2021/01/07 09:47:03;;;;;;;12.13;9.13;;;;;;;;;;5060334;28;20426;-59
2021/01/07 09:49:29;;;;;;;11.83;9.27;;;;;;;;;;5058707;28;20423;-59
2021/01/07 09:51:56;;;;;;;11.30;9.30;;;;;;;;;;5059875;28;20395;-62
2021/01/07 09:54:23;;;;;;;10.77;8.97;;;;;;;;;;5043702;28;20460;-60
2021/01/07 09:56:52;;;;;;;11.07;9.60;;;;;;;;;;5052400;28;20418;-59
2021/01/07 09:59:19;;;;;;;13.37;9.47;;;;;;;;;;5052961;28;20748;-59
2021/01/07 10:01:45;;;;;;;12.23;9.37;;;;;;;;;;5063519;28;20423;-58
2021/01/07 10:04:11;;;;;;;12.50;10.07;;;;;;;;;;5055432;28;20464;-59
2021/01/07 10:06:37;;;;;;;11.70;9.63;;;;;;;;;;5058683;28;20866;-59
2021/01/07 10:09:03;;;;;;;13.67;10.20;;;;;;;;;;5060881;28;20442;-59
2021/01/07 10:11:29;;;;;;;11.80;8.90;;;;;;;;;;5036409;28;20192;-59
2021/01/07 10:13:55;;;;;;;12.47;9.30;;;;;;;;;;5059196;28;20458;-59
2021/01/07 10:16:22;;;;;;;10.77;8.67;;;;;;;;;;5066581;28;20535;-59
2021/01/07 10:18:48;;;;;;;11.00;8.80;;;;;;;;;;5069650;28;20498;-59
2021/01/07 10:21:15;;;;;;;12.93;8.90;;;;;;;;;;5065675;28;20499;-59
2021/01/07 10:23:41;;;;;;;12.37;8.73;;;;;;;;;;5055764;28;20183;-59
2021/01/07 10:26:09;;;;;;;10.90;8.07;;;;;;;;;;5060337;28;20439;-61
2021/01/07 10:28:35;;;;;;;12.10;8.90;;;;;;;;;;5064932;28;20425;-59
2021/01/07 10:31:01;;;;;;;11.03;9.17;;;;;;;;;;5060903;28;20462;-59
2021/01/07 10:33:27;;;;;;;12.23;9.47;;;;;;;;;;5059399;28;20467;-59
2021/01/07 10:35:54;;;;;;;11.00;8.43;;;;;;;;;;5049989;28;20419;-58
2021/01/07 10:38:23;;;;;;;8.87;7.53;;;;;;;;;;5050461;28;20695;-61
2021/01/07 10:40:50;;;;;;;10.33;8.50;;;;;;;;;;5049607;28;20804;-59
2021/01/07 10:43:19;;;;;;;10.10;8.10;;;;;;;;;;5059581;28;20430;-59
2021/01/07 10:45:46;;;;;;;9.87;8.47;;;;;;;;;;5057043;28;20436;-59
2021/01/07 10:48:15;;;;;;;13.03;8.40;;;;;;;;;;5042017;28;20423;-61
2021/01/07 10:50:42;;;;;;;10.33;8.10;;;;;;;;;;5050753;28;20419;-59
2021/01/07 10:53:08;;;;;;;9.40;7.93;;;;;;;;;;5064818;28;20889;-59
2021/01/07 10:55:37;;;;;;;9.17;7.53;;;;;;;;;;5037681;28;20634;-58
2021/01/07 10:58:13;;;;;;;11.00;7.57;;;;;;;;;;5049136;28;20181;-59
2021/01/07 11:00:39;;;;;;;11.27;7.70;;;;;;;;;;5037315;28;20805;-61
2021/01/07 11:03:17;;;;;;;10.33;8.10;;;;;;;;;;5055423;28;20474;-59
2021/01/07 11:05:44;;;;;;;9.70;7.90;;;;;;;;;;5058421;28;20859;-59
2021/01/07 11:08:19;;;;;;;10.37;7.57;;;;;;;;;;5058941;28;21004;-59
2021/01/07 11:11:00;;;;;;;10.80;7.33;;;;;;;;;;5065875;28;20908;-59
2021/01/07 11:13:56;;;;;;;9.47;7.20;;;;;;;;;;5058400;28;20542;-61
2021/01/07 11:16:30;;;;;;;9.97;7.50;;;;;;;;;;5043891;28;20518;-59
2021/01/07 11:18:58;;;;;;;9.33;6.50;;;;;;;;;;5055175;28;20427;-62
2021/01/07 11:21:27;;;;;;;9.43;7.10;;;;;;;;;;5056143;28;20476;-59
2021/01/07 11:23:54;;;;;;;9.17;7.10;;;;;;;;;;5063681;28;20797;-59
2021/01/07 11:26:21;;;;;;;8.37;7.37;;;;;;;;;;5037473;28;21145;-62
2021/01/07 11:28:47;;;;;;;9.40;6.90;;;;;;;;;;5059079;28;20283;-59
2021/01/07 11:31:13;;;;;;;8.60;6.90;;;;;;;;;;5039423;28;20443;-59
2021/01/07 11:33:40;;;;;;;11.17;7.20;;;;;;;;;;5062367;28;20454;-59
2021/01/07 11:36:08;;;;;;;9.07;6.60;;;;;;;;;;5046826;28;20457;-59
2021/01/07 11:38:39;;;;;;;10.93;7.10;;;;;;;;;;5067770;28;20426;-59
2021/01/07 11:41:15;;;;;;;9.43;7.03;;;;;;;;;;5059927;28;20415;-60
2021/01/07 11:44:00;;;;;;;11.30;8.27;;;;;;;;;;5019330;28;20427;-59
2021/01/07 11:46:28;;;;;;;10.43;7.97;;;;;;;;;;5065876;28;20422;-59
2021/01/07 11:48:58;;;;;;;9.77;8.10;;;;;;;;;;5042453;28;20859;-60
2021/01/07 11:51:24;;;;;;;11.73;9.10;;;;;;;;;;5043681;28;20890;-61
2021/01/07 11:53:50;;;;;;;9.53;7.63;;;;;;;;;;5060664;28;20478;-59
2021/01/07 11:56:17;;;;;;;9.30;8.17;;;;;;;;;;5058040;28;20940;-59
2021/01/07 11:58:43;;;;;;;10.30;7.97;;;;;;;;;;5040781;28;20431;-59
2021/01/07 12:01:10;;;;;;;11.20;9.17;;;;;;;;;;5073263;28;20411;-59
2021/01/07 12:03:36;;;;;;;8.90;7.90;;;;;;;;;;5065461;28;21029;-59
2021/01/07 12:06:04;;;;;;;9.90;8.23;;;;;;;;;;5058714;28;20905;-59
2021/01/07 12:08:39;;;;;;;11.63;8.13;;;;;;;;;;5060867;28;20490;-59
2021/01/07 12:11:06;;;;;;;10.47;7.87;;;;;;;;;;5064126;28;20414;-59
2021/01/07 12:13:41;;;;;;;10.97;7.67;;;;;;;;;;5065775;28;20605;-61
2021/01/07 12:16:10;;;;;;;11.53;8.73;;;;;;;;;;5039492;28;20414;-58
2021/01/07 12:18:37;;;;;;;9.10;7.07;;;;;;;;;;5065063;28;20540;-59
2021/01/07 12:21:03;;;;;;;10.00;8.27;;;;;;;;;;5071534;28;20834;-58
2021/01/07 12:23:29;;;;;;;11.57;8.30;;;;;;;;;;5057407;28;20481;-60
2021/01/07 12:25:55;;;;;;;11.27;8.17;;;;;;;;;;5052063;28;20431;-59
2021/01/07 12:28:22;;;;;;;11.20;8.47;;;;;;;;;;5047762;28;21217;-59
2021/01/07 12:30:49;;;;;;;9.60;8.37;;;;;;;;;;5064015;28;20290;-59
2021/01/07 12:33:15;;;;;;;9.63;8.40;;;;;;;;;;5043026;28;20475;-60
2021/01/07 12:35:46;;;;;;;10.47;8.20;;;;;;;;;;5061421;28;20430;-60
2021/01/07 12:38:30;;;;;;;9.93;7.93;;;;;;;;;;5072402;28;20165;-59
2021/01/07 12:41:00;;;;;;;8.70;7.23;;;;;;;;;;5067733;28;20423;-59
2021/01/07 12:43:28;;;;;;;10.70;8.50;;;;;;;;;;5062996;28;20449;-60
2021/01/07 12:45:56;;;;;;;12.73;8.70;;;;;;;;;;5070985;28;20527;-59
2021/01/07 12:48:23;;;;;;;9.80;8.00;;;;;;;;;;5065292;28;20464;-59
2021/01/07 12:50:52;;;;;;;9.77;8.13;;;;;;;;;;5060985;28;20434;-59
2021/01/07 12:53:18;;;;;;;9.17;7.53;;;;;;;;;;5080537;28;20491;-59
2021/01/07 12:55:44;;;;;;;9.23;8.00;;;;;;;;;;5070029;28;20486;-59
2021/01/07 12:58:16;;;;;;;10.50;8.00;;;;;;;;;;5064783;28;20430;-59
2021/01/07 13:00:47;;;;;;;11.00;8.20;;;;;;;;;;5043956;28;20438;-62
2021/01/07 13:03:17;;;;;;;11.47;8.50;;;;;;;;;;5068030;28;20992;-59
2021/01/07 13:05:53;;;;;;;9.63;7.83;;;;;;;;;;5059271;28;20438;-60
2021/01/07 13:08:19;;;;;;;10.73;8.53;;;;;;;;;;5052994;28;21218;-61
2021/01/07 13:10:47;;;;;;;10.33;7.67;;;;;;;;;;5055329;28;20477;-59
2021/01/07 13:13:15;;;;;;;11.00;8.23;;;;;;;;;;5053996;28;20549;-60
2021/01/07 13:15:42;;;;;;;9.20;7.77;;;;;;;;;;5052180;28;20201;-59
2021/01/07 13:18:08;;;;;;;12.23;8.60;;;;;;;;;;5057429;28;20433;-59
2021/01/07 13:20:35;;;;;;;10.20;8.13;;;;;;;;;;5058816;28;20433;-59
2021/01/07 13:23:00;;;;;;;9.97;7.87;;;;;;;;;;5059833;28;20431;-59
2021/01/07 13:25:29;;;;;;;9.83;7.47;;;;;;;;;;5054825;28;20431;-59
2021/01/07 13:27:55;;;;;;;7.80;6.63;;;;;;;;;;5045139;28;20519;-59
2021/01/07 13:30:22;;;;;;;11.07;8.00;;;;;;;;;;5054925;28;20796;-59
2021/01/07 13:32:48;;;;;;;12.23;6.90;;;;;;;;;;5051326;28;20467;-61
2021/01/07 13:35:15;;;;;;;9.73;7.03;;;;;;;;;;5053866;28;20438;-60
2021/01/07 13:37:43;;;;;;;8.07;6.67;;;;;;;;;;5059427;28;20431;-59
2021/01/07 13:40:09;;;;;;;8.73;6.90;;;;;;;;;;5041199;28;20446;-59
2021/01/07 13:42:35;;;;;;;11.73;6.97;;;;;;;;;;5055599;28;20416;-59
2021/01/07 13:45:02;;;;;;;8.43;6.37;;;;;;;;;;5061784;28;20773;-58
2021/01/07 13:47:29;;;;;;;7.47;5.77;;;;;;;;;;5051030;28;21276;-60
2021/01/07 13:49:58;;;;;;;8.07;5.97;;;;;;;;;;5033828;28;20419;-59
2021/01/07 13:52:25;;;;;;;8.63;6.83;;;;;;;;;;5059088;28;20463;-61
2021/01/07 13:54:53;;;;;;;8.17;6.47;;;;;;;;;;5055237;28;20443;-61
2021/01/07 13:57:19;;;;;;;7.53;5.40;;;;;;;;;;5065787;28;20473;-61
2021/01/07 13:59:45;;;;;;;8.03;6.27;;;;;;;;;;5054969;28;20169;-59
2021/01/07 14:02:11;;;;;;;7.07;5.50;;;;;;;;;;5051929;28;20420;-58
2021/01/07 14:04:41;;;;;;;7.33;5.40;;;;;;;;;;5039824;28;20469;-59
2021/01/07 14:07:09;;;;;;;11.83;5.70;;;;;;;;;;5051652;28;20419;-58
2021/01/07 14:09:38;;;;;;;7.83;5.73;;;;;;;;;;5063569;28;20480;-59
2021/01/07 14:12:04;;;;;;;7.33;4.93;;;;;;;;;;5060416;28;20525;-58
2021/01/07 14:14:30;;;;;;;8.10;5.93;;;;;;;;;;5062593;28;20462;-59
2021/01/07 14:16:56;;;;;;;8.40;5.90;;;;;;;;;;5062891;28;20442;-61
2021/01/07 14:19:23;;;;;;;9.83;6.03;;;;;;;;;;5063885;28;20208;-59
2021/01/07 14:21:49;;;;;;;9.47;6.63;;;;;;;;;;5063043;28;20422;-59
2021/01/07 14:24:17;;;;;;;8.53;6.03;;;;;;;;;;5069410;28;20779;-59
2021/01/07 14:27:02;;;;;;;9.73;5.80;;;;;;;;;;5057846;28;20450;-58
2021/01/07 14:29:29;;;;;;;7.57;5.00;;;;;;;;;;5049642;28;20427;-59
2021/01/07 14:31:55;;;;;;;6.77;5.70;;;;;;;;;;5056562;28;20420;-60
2021/01/07 14:34:23;;;;;;;7.87;5.23;;;;;;;;;;5057088;28;20491;-62
2021/01/07 14:36:49;;;;;;;6.93;5.23;;;;;;;;;;5061728;28;20426;-60
2021/01/07 14:39:16;;;;;;;7.87;5.57;;;;;;;;;;5041525;28;20437;-59
2021/01/07 14:41:42;;;;;;;6.23;5.50;;;;;;;;;;5065935;28;20518;-59